sensor_id;sensor_type;location;lat;lon;timestamp;P1;durP1;ratioP1;P2;durP2;ratioP2
48925;SDS011;39838;59.938;30.642;2023-05-31T00:01:56;7.88;;;4.78;;
48925;SDS011;39838;59.938;30.642;2023-05-31T00:04:24;11.55;;;4.72;;
48925;SDS011;39838;59.938;30.642;2023-05-31T00:06:51;8.57;;;4.88;;
48925;SDS011;39838;59.938;30.642;2023-05-31T00:09:18;8.95;;;4.70;;
48925;SDS011;39838;59.938;30.642;2023-05-31T00:11:45;10.95;;;5.30;;
48925;SDS011;39838;59.938;30.642;2023-05-31T00:14:12;12.48;;;5.47;;
48925;SDS011;39838;59.938;30.642;2023-05-31T00:16:40;9.82;;;5.40;;
48925;SDS011;39838;59.938;30.642;2023-05-31T00:19:08;10.55;;;5.10;;
48925;SDS011;39838;59.938;30.642;2023-05-31T00:21:35;11.68;;;4.90;;
48925;SDS011;39838;59.938;30.642;2023-05-31T00:24:02;11.25;;;5.22;;
48925;SDS011;39838;59.938;30.642;2023-05-31T00:26:30;9.35;;;4.90;;
48925;SDS011;39838;59.938;30.642;2023-05-31T00:28:57;9.27;;;5.03;;
48925;SDS011;39838;59.938;30.642;2023-05-31T00:31:24;12.45;;;4.75;;
48925;SDS011;39838;59.938;30.642;2023-05-31T00:33:51;10.18;;;4.85;;
48925;SDS011;39838;59.938;30.642;2023-05-31T00:36:20;11.32;;;5.43;;
48925;SDS011;39838;59.938;30.642;2023-05-31T00:38:47;11.57;;;5.30;;
48925;SDS011;39838;59.938;30.642;2023-05-31T00:41:14;11.07;;;5.53;;
48925;SDS011;39838;59.938;30.642;2023-05-31T00:43:42;9.70;;;5.45;;
48925;SDS011;39838;59.938;30.642;2023-05-31T00:46:11;10.88;;;5.85;;
48925;SDS011;39838;59.938;30.642;2023-05-31T00:48:46;11.10;;;5.53;;
48925;SDS011;39838;59.938;30.642;2023-05-31T00:51:14;9.20;;;5.35;;
48925;SDS011;39838;59.938;30.642;2023-05-31T00:53:42;12.10;;;5.70;;
48925;SDS011;39838;59.938;30.642;2023-05-31T00:56:10;12.63;;;5.57;;
48925;SDS011;39838;59.938;30.642;2023-05-31T00:58:39;10.73;;;5.88;;
48925;SDS011;39838;59.938;30.642;2023-05-31T01:01:07;13.38;;;5.95;;
48925;SDS011;39838;59.938;30.642;2023-05-31T01:03:35;10.73;;;5.70;;
48925;SDS011;39838;59.938;30.642;2023-05-31T01:06:02;10.80;;;5.55;;
48925;SDS011;39838;59.938;30.642;2023-05-31T01:08:30;12.57;;;5.80;;
48925;SDS011;39838;59.938;30.642;2023-05-31T01:11:00;12.88;;;5.97;;
48925;SDS011;39838;59.938;30.642;2023-05-31T01:13:34;14.38;;;5.72;;
48925;SDS011;39838;59.938;30.642;2023-05-31T01:16:06;12.85;;;5.93;;
48925;SDS011;39838;59.938;30.642;2023-05-31T01:18:41;12.65;;;6.13;;
48925;SDS011;39838;59.938;30.642;2023-05-31T01:21:12;15.68;;;6.18;;
48925;SDS011;39838;59.938;30.642;2023-05-31T01:23:47;10.35;;;6.18;;
48925;SDS011;39838;59.938;30.642;2023-05-31T01:26:32;14.10;;;5.93;;
48925;SDS011;39838;59.938;30.642;2023-05-31T01:29:04;13.55;;;5.57;;
48925;SDS011;39838;59.938;30.642;2023-05-31T01:31:34;13.85;;;6.40;;
48925;SDS011;39838;59.938;30.642;2023-05-31T01:34:03;12.00;;;6.00;;
48925;SDS011;39838;59.938;30.642;2023-05-31T01:36:31;11.70;;;5.25;;
48925;SDS011;39838;59.938;30.642;2023-05-31T01:38:58;9.45;;;5.78;;
48925;SDS011;39838;59.938;30.642;2023-05-31T01:41:28;13.60;;;5.80;;
48925;SDS011;39838;59.938;30.642;2023-05-31T01:44:00;12.45;;;5.80;;
48925;SDS011;39838;59.938;30.642;2023-05-31T01:46:27;10.48;;;5.45;;
48925;SDS011;39838;59.938;30.642;2023-05-31T01:48:54;12.30;;;5.22;;
48925;SDS011;39838;59.938;30.642;2023-05-31T01:51:23;17.83;;;5.72;;
48925;SDS011;39838;59.938;30.642;2023-05-31T01:53:50;10.82;;;5.75;;
48925;SDS011;39838;59.938;30.642;2023-05-31T01:56:18;13.80;;;5.90;;
48925;SDS011;39838;59.938;30.642;2023-05-31T01:58:48;12.20;;;5.22;;
48925;SDS011;39838;59.938;30.642;2023-05-31T02:01:17;10.60;;;5.80;;
48925;SDS011;39838;59.938;30.642;2023-05-31T02:03:45;11.35;;;5.72;;
48925;SDS011;39838;59.938;30.642;2023-05-31T02:06:16;10.50;;;6.03;;
48925;SDS011;39838;59.938;30.642;2023-05-31T02:08:44;12.80;;;5.65;;
48925;SDS011;39838;59.938;30.642;2023-05-31T02:11:11;13.02;;;5.43;;
48925;SDS011;39838;59.938;30.642;2023-05-31T02:13:38;7.60;;;4.93;;
48925;SDS011;39838;59.938;30.642;2023-05-31T02:16:07;10.98;;;5.72;;
48925;SDS011;39838;59.938;30.642;2023-05-31T02:18:35;10.55;;;5.10;;
48925;SDS011;39838;59.938;30.642;2023-05-31T02:21:02;13.52;;;5.60;;
48925;SDS011;39838;59.938;30.642;2023-05-31T02:23:31;12.35;;;5.68;;
48925;SDS011;39838;59.938;30.642;2023-05-31T02:25:58;13.48;;;5.22;;
48925;SDS011;39838;59.938;30.642;2023-05-31T02:28:25;12.05;;;5.72;;
48925;SDS011;39838;59.938;30.642;2023-05-31T02:30:53;10.85;;;5.80;;
48925;SDS011;39838;59.938;30.642;2023-05-31T02:33:22;8.98;;;5.78;;
48925;SDS011;39838;59.938;30.642;2023-05-31T02:35:49;11.82;;;5.90;;
48925;SDS011;39838;59.938;30.642;2023-05-31T02:38:18;13.88;;;6.15;;
48925;SDS011;39838;59.938;30.642;2023-05-31T02:40:46;10.70;;;5.30;;
48925;SDS011;39838;59.938;30.642;2023-05-31T02:43:13;13.88;;;5.65;;
48925;SDS011;39838;59.938;30.642;2023-05-31T02:45:40;13.20;;;5.47;;
48925;SDS011;39838;59.938;30.642;2023-05-31T02:48:08;11.93;;;5.50;;
48925;SDS011;39838;59.938;30.642;2023-05-31T02:50:37;11.15;;;6.20;;
48925;SDS011;39838;59.938;30.642;2023-05-31T02:53:04;12.57;;;5.70;;
48925;SDS011;39838;59.938;30.642;2023-05-31T02:55:31;11.43;;;5.82;;
48925;SDS011;39838;59.938;30.642;2023-05-31T02:57:58;11.10;;;6.00;;
48925;SDS011;39838;59.938;30.642;2023-05-31T03:00:26;12.48;;;5.60;;
48925;SDS011;39838;59.938;30.642;2023-05-31T03:02:54;12.13;;;6.32;;
48925;SDS011;39838;59.938;30.642;2023-05-31T03:05:21;11.02;;;6.03;;
48925;SDS011;39838;59.938;30.642;2023-05-31T03:07:51;10.35;;;5.80;;
48925;SDS011;39838;59.938;30.642;2023-05-31T03:10:18;12.63;;;6.22;;
48925;SDS011;39838;59.938;30.642;2023-05-31T03:12:47;10.65;;;5.70;;
48925;SDS011;39838;59.938;30.642;2023-05-31T03:15:14;15.77;;;6.47;;
48925;SDS011;39838;59.938;30.642;2023-05-31T03:17:41;12.48;;;6.03;;
48925;SDS011;39838;59.938;30.642;2023-05-31T03:20:09;14.27;;;6.00;;
48925;SDS011;39838;59.938;30.642;2023-05-31T03:22:36;10.95;;;5.78;;
48925;SDS011;39838;59.938;30.642;2023-05-31T03:25:06;10.95;;;5.47;;
48925;SDS011;39838;59.938;30.642;2023-05-31T03:27:33;10.77;;;5.78;;
48925;SDS011;39838;59.938;30.642;2023-05-31T03:30:00;13.60;;;5.63;;
48925;SDS011;39838;59.938;30.642;2023-05-31T03:32:31;13.38;;;5.60;;
48925;SDS011;39838;59.938;30.642;2023-05-31T03:34:58;10.18;;;5.93;;
48925;SDS011;39838;59.938;30.642;2023-05-31T03:37:25;14.60;;;5.20;;
48925;SDS011;39838;59.938;30.642;2023-05-31T03:39:52;11.75;;;5.55;;
48925;SDS011;39838;59.938;30.642;2023-05-31T03:42:21;13.75;;;5.75;;
48925;SDS011;39838;59.938;30.642;2023-05-31T03:44:48;13.65;;;5.93;;
48925;SDS011;39838;59.938;30.642;2023-05-31T03:47:15;12.52;;;5.78;;
48925;SDS011;39838;59.938;30.642;2023-05-31T03:49:43;10.75;;;5.30;;
48925;SDS011;39838;59.938;30.642;2023-05-31T03:52:10;13.32;;;5.43;;
48925;SDS011;39838;59.938;30.642;2023-05-31T03:54:38;12.23;;;6.00;;
48925;SDS011;39838;59.938;30.642;2023-05-31T03:57:06;11.32;;;5.70;;
48925;SDS011;39838;59.938;30.642;2023-05-31T03:59:35;12.48;;;5.07;;
48925;SDS011;39838;59.938;30.642;2023-05-31T04:05:24;11.25;;;4.82;;
48925;SDS011;39838;59.938;30.642;2023-05-31T04:07:51;9.88;;;5.18;;
48925;SDS011;39838;59.938;30.642;2023-05-31T04:10:19;10.35;;;5.32;;
48925;SDS011;39838;59.938;30.642;2023-05-31T04:12:46;14.68;;;5.45;;
48925;SDS011;39838;59.938;30.642;2023-05-31T04:15:15;10.43;;;4.70;;
48925;SDS011;39838;59.938;30.642;2023-05-31T04:17:42;14.52;;;4.68;;
48925;SDS011;39838;59.938;30.642;2023-05-31T04:20:11;10.35;;;4.57;;
48925;SDS011;39838;59.938;30.642;2023-05-31T04:22:39;10.15;;;4.75;;
48925;SDS011;39838;59.938;30.642;2023-05-31T04:25:06;8.15;;;3.95;;
48925;SDS011;39838;59.938;30.642;2023-05-31T04:27:34;10.40;;;4.00;;
48925;SDS011;39838;59.938;30.642;2023-05-31T04:30:04;11.73;;;3.85;;
48925;SDS011;39838;59.938;30.642;2023-05-31T04:32:33;11.48;;;3.50;;
48925;SDS011;39838;59.938;30.642;2023-05-31T04:35:01;8.30;;;2.88;;
48925;SDS011;39838;59.938;30.642;2023-05-31T04:37:30;8.48;;;3.10;;
48925;SDS011;39838;59.938;30.642;2023-05-31T04:39:58;8.77;;;3.22;;
48925;SDS011;39838;59.938;30.642;2023-05-31T04:42:25;6.18;;;2.92;;
48925;SDS011;39838;59.938;30.642;2023-05-31T04:44:53;10.80;;;2.97;;
48925;SDS011;39838;59.938;30.642;2023-05-31T04:47:23;7.15;;;3.20;;
48925;SDS011;39838;59.938;30.642;2023-05-31T04:49:54;5.10;;;2.90;;
48925;SDS011;39838;59.938;30.642;2023-05-31T04:52:23;9.23;;;3.20;;
48925;SDS011;39838;59.938;30.642;2023-05-31T04:54:52;6.28;;;3.10;;
48925;SDS011;39838;59.938;30.642;2023-05-31T04:57:20;9.25;;;3.67;;
48925;SDS011;39838;59.938;30.642;2023-05-31T04:59:47;8.57;;;3.15;;
48925;SDS011;39838;59.938;30.642;2023-05-31T05:02:16;10.00;;;3.17;;
48925;SDS011;39838;59.938;30.642;2023-05-31T05:04:44;7.10;;;3.10;;
48925;SDS011;39838;59.938;30.642;2023-05-31T05:07:14;10.32;;;3.40;;
48925;SDS011;39838;59.938;30.642;2023-05-31T05:09:43;6.10;;;3.50;;
48925;SDS011;39838;59.938;30.642;2023-05-31T05:12:10;6.85;;;3.42;;
48925;SDS011;39838;59.938;30.642;2023-05-31T05:14:38;6.63;;;3.90;;
48925;SDS011;39838;59.938;30.642;2023-05-31T05:17:05;11.48;;;3.88;;
48925;SDS011;39838;59.938;30.642;2023-05-31T05:19:33;9.70;;;4.05;;
48925;SDS011;39838;59.938;30.642;2023-05-31T05:22:00;8.65;;;3.38;;
48925;SDS011;39838;59.938;30.642;2023-05-31T05:24:29;14.35;;;3.20;;
48925;SDS011;39838;59.938;30.642;2023-05-31T05:26:56;8.48;;;2.97;;
48925;SDS011;39838;59.938;30.642;2023-05-31T05:29:24;7.07;;;2.90;;
48925;SDS011;39838;59.938;30.642;2023-05-31T05:31:51;9.75;;;2.33;;
48925;SDS011;39838;59.938;30.642;2023-05-31T05:34:19;7.65;;;2.50;;
48925;SDS011;39838;59.938;30.642;2023-05-31T05:36:46;4.38;;;2.20;;
48925;SDS011;39838;59.938;30.642;2023-05-31T05:39:13;4.15;;;2.08;;
48925;SDS011;39838;59.938;30.642;2023-05-31T05:41:42;5.18;;;2.22;;
48925;SDS011;39838;59.938;30.642;2023-05-31T05:44:09;5.88;;;2.20;;
48925;SDS011;39838;59.938;30.642;2023-05-31T05:46:37;7.07;;;1.92;;
48925;SDS011;39838;59.938;30.642;2023-05-31T05:49:04;8.13;;;2.63;;
48925;SDS011;39838;59.938;30.642;2023-05-31T05:51:31;8.20;;;2.30;;
48925;SDS011;39838;59.938;30.642;2023-05-31T05:53:59;5.53;;;1.75;;
48925;SDS011;39838;59.938;30.642;2023-05-31T05:56:26;6.90;;;2.25;;
48925;SDS011;39838;59.938;30.642;2023-05-31T05:58:55;12.00;;;2.25;;
48925;SDS011;39838;59.938;30.642;2023-05-31T06:01:22;2.15;;;1.40;;
48925;SDS011;39838;59.938;30.642;2023-05-31T06:03:52;5.43;;;1.85;;
48925;SDS011;39838;59.938;30.642;2023-05-31T06:06:19;3.55;;;1.90;;
48925;SDS011;39838;59.938;30.642;2023-05-31T06:08:47;6.43;;;1.67;;
48925;SDS011;39838;59.938;30.642;2023-05-31T06:11:14;3.58;;;1.90;;
48925;SDS011;39838;59.938;30.642;2023-05-31T06:13:43;3.85;;;2.00;;
48925;SDS011;39838;59.938;30.642;2023-05-31T06:16:13;6.78;;;2.00;;
48925;SDS011;39838;59.938;30.642;2023-05-31T06:18:41;7.63;;;2.10;;
48925;SDS011;39838;59.938;30.642;2023-05-31T06:21:08;5.82;;;1.90;;
48925;SDS011;39838;59.938;30.642;2023-05-31T06:23:35;3.70;;;1.52;;
48925;SDS011;39838;59.938;30.642;2023-05-31T06:26:02;9.20;;;1.90;;
48925;SDS011;39838;59.938;30.642;2023-05-31T06:28:30;7.40;;;1.80;;
48925;SDS011;39838;59.938;30.642;2023-05-31T06:30:57;2.85;;;1.60;;
48925;SDS011;39838;59.938;30.642;2023-05-31T06:33:27;5.55;;;2.13;;
48925;SDS011;39838;59.938;30.642;2023-05-31T06:35:54;4.97;;;2.00;;
48925;SDS011;39838;59.938;30.642;2023-05-31T06:38:22;3.42;;;1.80;;
48925;SDS011;39838;59.938;30.642;2023-05-31T06:40:49;4.05;;;1.50;;
48925;SDS011;39838;59.938;30.642;2023-05-31T06:43:17;6.57;;;1.38;;
48925;SDS011;39838;59.938;30.642;2023-05-31T06:45:44;6.32;;;1.25;;
48925;SDS011;39838;59.938;30.642;2023-05-31T06:48:11;5.53;;;1.63;;
48925;SDS011;39838;59.938;30.642;2023-05-31T06:50:40;6.55;;;2.15;;
48925;SDS011;39838;59.938;30.642;2023-05-31T06:53:08;8.13;;;2.15;;
48925;SDS011;39838;59.938;30.642;2023-05-31T06:55:38;4.88;;;1.77;;
48925;SDS011;39838;59.938;30.642;2023-05-31T06:58:05;2.03;;;1.50;;
48925;SDS011;39838;59.938;30.642;2023-05-31T07:00:33;4.65;;;1.52;;
48925;SDS011;39838;59.938;30.642;2023-05-31T07:03:00;4.80;;;1.70;;
48925;SDS011;39838;59.938;30.642;2023-05-31T07:05:28;4.05;;;1.42;;
48925;SDS011;39838;59.938;30.642;2023-05-31T07:07:57;9.25;;;1.70;;
48925;SDS011;39838;59.938;30.642;2023-05-31T07:10:25;3.00;;;1.10;;
48925;SDS011;39838;59.938;30.642;2023-05-31T07:12:53;8.75;;;1.70;;
48925;SDS011;39838;59.938;30.642;2023-05-31T07:15:21;3.97;;;1.50;;
48925;SDS011;39838;59.938;30.642;2023-05-31T07:17:48;6.13;;;1.48;;
48925;SDS011;39838;59.938;30.642;2023-05-31T07:20:15;3.08;;;1.80;;
48925;SDS011;39838;59.938;30.642;2023-05-31T07:22:43;8.63;;;1.50;;
48925;SDS011;39838;59.938;30.642;2023-05-31T07:25:11;5.03;;;1.50;;
48925;SDS011;39838;59.938;30.642;2023-05-31T07:27:39;8.18;;;1.60;;
48925;SDS011;39838;59.938;30.642;2023-05-31T07:30:06;4.50;;;1.50;;
48925;SDS011;39838;59.938;30.642;2023-05-31T07:32:34;8.75;;;2.13;;
48925;SDS011;39838;59.938;30.642;2023-05-31T07:35:02;4.28;;;2.05;;
48925;SDS011;39838;59.938;30.642;2023-05-31T07:37:30;6.03;;;1.48;;
48925;SDS011;39838;59.938;30.642;2023-05-31T07:39:57;8.13;;;1.75;;
48925;SDS011;39838;59.938;30.642;2023-05-31T07:42:26;8.70;;;1.77;;
48925;SDS011;39838;59.938;30.642;2023-05-31T07:44:54;12.38;;;1.60;;
48925;SDS011;39838;59.938;30.642;2023-05-31T07:47:21;8.73;;;1.75;;
48925;SDS011;39838;59.938;30.642;2023-05-31T07:49:48;7.07;;;1.88;;
48925;SDS011;39838;59.938;30.642;2023-05-31T07:52:16;5.05;;;2.33;;
48925;SDS011;39838;59.938;30.642;2023-05-31T07:54:47;5.32;;;1.90;;
48925;SDS011;39838;59.938;30.642;2023-05-31T07:57:14;4.97;;;1.95;;
48925;SDS011;39838;59.938;30.642;2023-05-31T07:59:44;6.07;;;1.45;;
48925;SDS011;39838;59.938;30.642;2023-05-31T08:02:12;7.78;;;2.00;;
48925;SDS011;39838;59.938;30.642;2023-05-31T08:04:39;9.02;;;2.00;;
48925;SDS011;39838;59.938;30.642;2023-05-31T08:07:06;7.55;;;1.92;;
48925;SDS011;39838;59.938;30.642;2023-05-31T08:09:34;8.82;;;2.22;;
48925;SDS011;39838;59.938;30.642;2023-05-31T08:12:01;3.25;;;1.88;;
48925;SDS011;39838;59.938;30.642;2023-05-31T08:14:29;4.80;;;1.85;;
48925;SDS011;39838;59.938;30.642;2023-05-31T08:16:58;4.50;;;1.70;;
48925;SDS011;39838;59.938;30.642;2023-05-31T08:19:25;6.68;;;2.00;;
48925;SDS011;39838;59.938;30.642;2023-05-31T08:21:52;10.52;;;2.15;;
48925;SDS011;39838;59.938;30.642;2023-05-31T08:24:20;5.50;;;2.30;;
48925;SDS011;39838;59.938;30.642;2023-05-31T08:26:47;8.63;;;2.00;;
48925;SDS011;39838;59.938;30.642;2023-05-31T08:29:15;8.10;;;2.20;;
48925;SDS011;39838;59.938;30.642;2023-05-31T08:31:43;4.35;;;2.00;;
48925;SDS011;39838;59.938;30.642;2023-05-31T08:34:11;7.70;;;2.38;;
48925;SDS011;39838;59.938;30.642;2023-05-31T08:36:39;8.93;;;2.17;;
48925;SDS011;39838;59.938;30.642;2023-05-31T08:39:06;7.43;;;2.05;;
48925;SDS011;39838;59.938;30.642;2023-05-31T08:41:35;6.95;;;2.45;;
48925;SDS011;39838;59.938;30.642;2023-05-31T08:44:10;8.45;;;2.40;;
48925;SDS011;39838;59.938;30.642;2023-05-31T08:46:38;6.22;;;2.10;;
48925;SDS011;39838;59.938;30.642;2023-05-31T08:49:08;7.20;;;2.40;;
48925;SDS011;39838;59.938;30.642;2023-05-31T08:51:38;6.85;;;2.47;;
48925;SDS011;39838;59.938;30.642;2023-05-31T08:54:07;10.60;;;2.47;;
48925;SDS011;39838;59.938;30.642;2023-05-31T08:56:37;12.60;;;2.65;;
48925;SDS011;39838;59.938;30.642;2023-05-31T08:59:06;5.10;;;2.22;;
48925;SDS011;39838;59.938;30.642;2023-05-31T09:01:35;5.00;;;2.05;;
48925;SDS011;39838;59.938;30.642;2023-05-31T09:04:04;6.25;;;2.03;;
48925;SDS011;39838;59.938;30.642;2023-05-31T09:06:32;6.80;;;2.20;;
48925;SDS011;39838;59.938;30.642;2023-05-31T09:09:01;7.93;;;3.05;;
48925;SDS011;39838;59.938;30.642;2023-05-31T09:11:29;7.35;;;2.33;;
48925;SDS011;39838;59.938;30.642;2023-05-31T09:13:56;6.13;;;2.40;;
48925;SDS011;39838;59.938;30.642;2023-05-31T09:16:23;7.00;;;2.28;;
48925;SDS011;39838;59.938;30.642;2023-05-31T09:18:59;10.02;;;2.58;;
48925;SDS011;39838;59.938;30.642;2023-05-31T09:21:28;6.47;;;2.20;;
48925;SDS011;39838;59.938;30.642;2023-05-31T09:23:56;7.72;;;2.72;;
48925;SDS011;39838;59.938;30.642;2023-05-31T09:26:27;7.28;;;2.25;;
48925;SDS011;39838;59.938;30.642;2023-05-31T09:28:58;9.05;;;2.42;;
48925;SDS011;39838;59.938;30.642;2023-05-31T09:31:25;7.20;;;2.28;;
48925;SDS011;39838;59.938;30.642;2023-05-31T09:33:53;4.85;;;2.47;;
48925;SDS011;39838;59.938;30.642;2023-05-31T09:36:24;8.63;;;2.20;;
48925;SDS011;39838;59.938;30.642;2023-05-31T09:38:57;8.98;;;2.53;;
48925;SDS011;39838;59.938;30.642;2023-05-31T09:41:29;9.00;;;2.70;;
48925;SDS011;39838;59.938;30.642;2023-05-31T09:43:58;8.93;;;1.98;;
48925;SDS011;39838;59.938;30.642;2023-05-31T09:46:25;6.28;;;1.95;;
48925;SDS011;39838;59.938;30.642;2023-05-31T09:48:56;5.68;;;2.35;;
48925;SDS011;39838;59.938;30.642;2023-05-31T09:51:25;8.80;;;2.22;;
48925;SDS011;39838;59.938;30.642;2023-05-31T09:53:52;8.35;;;2.28;;
48925;SDS011;39838;59.938;30.642;2023-05-31T09:56:22;6.72;;;2.00;;
48925;SDS011;39838;59.938;30.642;2023-05-31T09:58:52;10.20;;;2.17;;
48925;SDS011;39838;59.938;30.642;2023-05-31T10:01:23;7.82;;;2.20;;
48925;SDS011;39838;59.938;30.642;2023-05-31T10:03:50;6.00;;;2.30;;
48925;SDS011;39838;59.938;30.642;2023-05-31T10:06:17;4.50;;;2.00;;
48925;SDS011;39838;59.938;30.642;2023-05-31T10:08:46;13.57;;;2.35;;
48925;SDS011;39838;59.938;30.642;2023-05-31T10:11:15;3.72;;;1.90;;
48925;SDS011;39838;59.938;30.642;2023-05-31T10:13:44;6.35;;;2.40;;
48925;SDS011;39838;59.938;30.642;2023-05-31T10:16:15;5.25;;;1.90;;
48925;SDS011;39838;59.938;30.642;2023-05-31T10:18:44;7.40;;;2.22;;
48925;SDS011;39838;59.938;30.642;2023-05-31T10:21:16;7.20;;;2.22;;
48925;SDS011;39838;59.938;30.642;2023-05-31T10:23:51;8.35;;;2.13;;
48925;SDS011;39838;59.938;30.642;2023-05-31T10:26:23;5.53;;;2.30;;
48925;SDS011;39838;59.938;30.642;2023-05-31T10:29:00;6.15;;;2.30;;
48925;SDS011;39838;59.938;30.642;2023-05-31T10:31:35;6.90;;;2.47;;
48925;SDS011;39838;59.938;30.642;2023-05-31T10:34:16;7.72;;;2.40;;
48925;SDS011;39838;59.938;30.642;2023-05-31T10:36:48;8.07;;;2.38;;
48925;SDS011;39838;59.938;30.642;2023-05-31T10:39:19;6.88;;;2.20;;
48925;SDS011;39838;59.938;30.642;2023-05-31T10:41:53;7.22;;;2.60;;
48925;SDS011;39838;59.938;30.642;2023-05-31T10:44:28;11.13;;;2.53;;
48925;SDS011;39838;59.938;30.642;2023-05-31T10:47:10;11.45;;;2.40;;
48925;SDS011;39838;59.938;30.642;2023-05-31T10:49:40;9.57;;;2.50;;
48925;SDS011;39838;59.938;30.642;2023-05-31T10:52:10;8.35;;;2.28;;
48925;SDS011;39838;59.938;30.642;2023-05-31T10:54:40;8.50;;;2.20;;
48925;SDS011;39838;59.938;30.642;2023-05-31T10:57:07;6.97;;;2.35;;
48925;SDS011;39838;59.938;30.642;2023-05-31T10:59:39;8.98;;;2.60;;
48925;SDS011;39838;59.938;30.642;2023-05-31T11:02:09;13.23;;;3.38;;
48925;SDS011;39838;59.938;30.642;2023-05-31T11:04:38;9.43;;;2.38;;
48925;SDS011;39838;59.938;30.642;2023-05-31T11:07:12;4.78;;;2.35;;
48925;SDS011;39838;59.938;30.642;2023-05-31T11:09:53;9.40;;;2.80;;
48925;SDS011;39838;59.938;30.642;2023-05-31T11:12:31;7.07;;;2.88;;
48925;SDS011;39838;59.938;30.642;2023-05-31T11:15:00;8.40;;;2.70;;
48925;SDS011;39838;59.938;30.642;2023-05-31T11:17:39;11.13;;;2.40;;
48925;SDS011;39838;59.938;30.642;2023-05-31T11:20:17;10.90;;;2.80;;
48925;SDS011;39838;59.938;30.642;2023-05-31T11:22:45;7.50;;;2.63;;
48925;SDS011;39838;59.938;30.642;2023-05-31T11:25:19;7.75;;;2.42;;
48925;SDS011;39838;59.938;30.642;2023-05-31T11:27:47;9.23;;;2.30;;
48925;SDS011;39838;59.938;30.642;2023-05-31T11:30:15;7.38;;;2.30;;
48925;SDS011;39838;59.938;30.642;2023-05-31T11:35:41;7.60;;;2.72;;
48925;SDS011;39838;59.938;30.642;2023-05-31T11:38:09;6.70;;;2.70;;
48925;SDS011;39838;59.938;30.642;2023-05-31T11:40:36;8.75;;;2.40;;
48925;SDS011;39838;59.938;30.642;2023-05-31T11:43:07;13.95;;;2.40;;
48925;SDS011;39838;59.938;30.642;2023-05-31T11:45:40;21.02;;;3.10;;
48925;SDS011;39838;59.938;30.642;2023-05-31T11:51:13;8.13;;;2.58;;
48925;SDS011;39838;59.938;30.642;2023-05-31T11:53:40;10.88;;;2.65;;
48925;SDS011;39838;59.938;30.642;2023-05-31T11:56:08;6.78;;;2.45;;
48925;SDS011;39838;59.938;30.642;2023-05-31T11:58:37;12.93;;;2.40;;
48925;SDS011;39838;59.938;30.642;2023-05-31T12:01:05;13.75;;;2.63;;
48925;SDS011;39838;59.938;30.642;2023-05-31T12:03:33;10.25;;;2.22;;
48925;SDS011;39838;59.938;30.642;2023-05-31T12:06:08;6.43;;;2.58;;
48925;SDS011;39838;59.938;30.642;2023-05-31T12:08:35;5.78;;;2.50;;
48925;SDS011;39838;59.938;30.642;2023-05-31T12:11:03;11.10;;;2.63;;
48925;SDS011;39838;59.938;30.642;2023-05-31T12:13:32;10.52;;;2.58;;
48925;SDS011;39838;59.938;30.642;2023-05-31T12:15:59;7.30;;;2.65;;
48925;SDS011;39838;59.938;30.642;2023-05-31T12:18:28;8.02;;;2.72;;
48925;SDS011;39838;59.938;30.642;2023-05-31T12:20:55;11.73;;;2.75;;
48925;SDS011;39838;59.938;30.642;2023-05-31T12:23:24;9.75;;;2.85;;
48925;SDS011;39838;59.938;30.642;2023-05-31T12:25:52;16.17;;;3.33;;
48925;SDS011;39838;59.938;30.642;2023-05-31T12:28:20;12.70;;;3.20;;
48925;SDS011;39838;59.938;30.642;2023-05-31T12:30:48;14.73;;;2.70;;
48925;SDS011;39838;59.938;30.642;2023-05-31T12:33:17;10.52;;;2.70;;
48925;SDS011;39838;59.938;30.642;2023-05-31T12:35:46;10.25;;;2.90;;
48925;SDS011;39838;59.938;30.642;2023-05-31T12:38:13;7.55;;;2.60;;
48925;SDS011;39838;59.938;30.642;2023-05-31T12:40:43;8.43;;;2.60;;
48925;SDS011;39838;59.938;30.642;2023-05-31T12:43:11;13.40;;;2.92;;
48925;SDS011;39838;59.938;30.642;2023-05-31T12:45:40;13.27;;;2.70;;
48925;SDS011;39838;59.938;30.642;2023-05-31T12:48:08;8.63;;;2.72;;
48925;SDS011;39838;59.938;30.642;2023-05-31T12:50:37;8.98;;;2.85;;
48925;SDS011;39838;59.938;30.642;2023-05-31T12:53:11;6.63;;;2.78;;
48925;SDS011;39838;59.938;30.642;2023-05-31T12:55:38;10.93;;;2.90;;
48925;SDS011;39838;59.938;30.642;2023-05-31T12:58:08;7.13;;;2.70;;
48925;SDS011;39838;59.938;30.642;2023-05-31T13:00:35;8.48;;;2.47;;
48925;SDS011;39838;59.938;30.642;2023-05-31T13:03:02;9.57;;;2.40;;
48925;SDS011;39838;59.938;30.642;2023-05-31T13:05:32;4.80;;;2.35;;
48925;SDS011;39838;59.938;30.642;2023-05-31T13:07:59;7.78;;;2.38;;
48925;SDS011;39838;59.938;30.642;2023-05-31T13:10:26;10.40;;;2.80;;
48925;SDS011;39838;59.938;30.642;2023-05-31T13:12:54;12.52;;;3.10;;
48925;SDS011;39838;59.938;30.642;2023-05-31T13:15:22;15.77;;;3.30;;
48925;SDS011;39838;59.938;30.642;2023-05-31T13:17:50;9.90;;;3.20;;
48925;SDS011;39838;59.938;30.642;2023-05-31T13:20:17;16.10;;;3.40;;
48925;SDS011;39838;59.938;30.642;2023-05-31T13:22:44;10.90;;;2.85;;
48925;SDS011;39838;59.938;30.642;2023-05-31T13:25:12;11.93;;;2.85;;
48925;SDS011;39838;59.938;30.642;2023-05-31T13:27:40;9.60;;;2.75;;
48925;SDS011;39838;59.938;30.642;2023-05-31T13:30:07;11.45;;;2.90;;
48925;SDS011;39838;59.938;30.642;2023-05-31T13:32:37;11.95;;;2.85;;
48925;SDS011;39838;59.938;30.642;2023-05-31T13:35:05;8.40;;;2.67;;
48925;SDS011;39838;59.938;30.642;2023-05-31T13:37:35;15.70;;;3.03;;
48925;SDS011;39838;59.938;30.642;2023-05-31T13:40:02;9.05;;;3.03;;
48925;SDS011;39838;59.938;30.642;2023-05-31T13:42:30;9.65;;;2.70;;
48925;SDS011;39838;59.938;30.642;2023-05-31T13:44:58;15.82;;;2.97;;
48925;SDS011;39838;59.938;30.642;2023-05-31T13:47:25;13.20;;;3.28;;
48925;SDS011;39838;59.938;30.642;2023-05-31T13:49:54;8.70;;;2.80;;
48925;SDS011;39838;59.938;30.642;2023-05-31T13:52:22;7.47;;;3.10;;
48925;SDS011;39838;59.938;30.642;2023-05-31T13:54:49;9.90;;;3.30;;
48925;SDS011;39838;59.938;30.642;2023-05-31T13:57:16;11.85;;;3.47;;
48925;SDS011;39838;59.938;30.642;2023-05-31T13:59:44;12.38;;;3.38;;
48925;SDS011;39838;59.938;30.642;2023-05-31T14:02:11;19.48;;;3.70;;
48925;SDS011;39838;59.938;30.642;2023-05-31T14:04:39;15.95;;;3.97;;
48925;SDS011;39838;59.938;30.642;2023-05-31T14:07:07;16.88;;;3.53;;
48925;SDS011;39838;59.938;30.642;2023-05-31T14:09:35;10.70;;;3.47;;
48925;SDS011;39838;59.938;30.642;2023-05-31T14:12:02;12.07;;;3.08;;
48925;SDS011;39838;59.938;30.642;2023-05-31T14:14:30;8.75;;;2.72;;
48925;SDS011;39838;59.938;30.642;2023-05-31T14:16:58;8.70;;;3.10;;
48925;SDS011;39838;59.938;30.642;2023-05-31T14:19:26;4.82;;;2.53;;
48925;SDS011;39838;59.938;30.642;2023-05-31T14:21:53;8.60;;;2.70;;
48925;SDS011;39838;59.938;30.642;2023-05-31T14:24:22;7.00;;;2.75;;
48925;SDS011;39838;59.938;30.642;2023-05-31T14:26:50;11.85;;;2.75;;
48925;SDS011;39838;59.938;30.642;2023-05-31T14:29:18;9.80;;;3.00;;
48925;SDS011;39838;59.938;30.642;2023-05-31T14:31:45;7.07;;;2.88;;
48925;SDS011;39838;59.938;30.642;2023-05-31T14:34:12;6.60;;;2.40;;
48925;SDS011;39838;59.938;30.642;2023-05-31T14:36:40;5.35;;;2.60;;
48925;SDS011;39838;59.938;30.642;2023-05-31T14:39:08;12.55;;;2.80;;
48925;SDS011;39838;59.938;30.642;2023-05-31T14:41:37;6.07;;;2.40;;
48925;SDS011;39838;59.938;30.642;2023-05-31T14:44:04;9.65;;;2.40;;
48925;SDS011;39838;59.938;30.642;2023-05-31T14:46:31;7.70;;;2.83;;